createdAt,value
2018-06-09T00:00:43.207Z,99.99
2018-06-09T00:01:43.793Z,99.99
2018-06-09T00:02:44.362Z,99.99
2018-06-09T00:03:44.911Z,99.99
2018-06-09T00:04:45.461Z,99.99
2018-06-09T00:05:46.008Z,99.99
2018-06-09T00:06:46.558Z,99.99
2018-06-09T00:07:47.114Z,99.99
2018-06-09T00:08:47.667Z,99.99
2018-06-09T00:09:48.221Z,99.99
2018-06-09T00:10:48.765Z,99.99
2018-06-09T00:11:49.321Z,99.99
2018-06-09T00:12:49.874Z,99.99
2018-06-09T00:13:50.421Z,99.99
2018-06-09T00:14:50.972Z,99.99
2018-06-09T00:15:51.526Z,99.99
2018-06-09T00:16:52.081Z,99.99
2018-06-09T00:17:52.633Z,99.99
2018-06-09T00:18:53.184Z,99.99
2018-06-09T00:19:53.737Z,99.99
2018-06-09T00:20:54.292Z,99.99
2018-06-09T00:21:54.843Z,99.99
2018-06-09T00:22:55.393Z,99.99
2018-06-09T00:23:55.942Z,99.99
2018-06-09T00:24:56.491Z,99.99
2018-06-09T00:25:57.038Z,99.99
2018-06-09T00:26:57.592Z,99.99
2018-06-09T00:27:58.143Z,99.99
2018-06-09T00:28:58.691Z,99.99
2018-06-09T00:29:59.244Z,99.99
2018-06-09T00:30:59.793Z,99.99
2018-06-09T00:32:00.344Z,99.99
2018-06-09T00:33:00.897Z,99.99
2018-06-09T00:34:01.446Z,99.99
2018-06-09T00:35:02.000Z,99.99
2018-06-09T00:36:02.551Z,99.99
2018-06-09T00:37:03.101Z,99.99
2018-06-09T00:38:03.656Z,99.99
2018-06-09T00:39:04.198Z,99.99
2018-06-09T00:40:04.747Z,99.99
2018-06-09T00:41:05.295Z,99.99
2018-06-09T00:42:05.847Z,99.99
2018-06-09T00:43:06.399Z,99.99
2018-06-09T00:44:06.951Z,99.99
2018-06-09T00:45:07.507Z,99.99
2018-06-09T00:46:08.060Z,99.99
2018-06-09T00:47:08.614Z,99.99
2018-06-09T00:48:09.165Z,99.99
2018-06-09T00:49:09.719Z,99.99
2018-06-09T00:50:10.270Z,99.99
2018-06-09T00:51:10.819Z,99.99
2018-06-09T00:52:11.371Z,99.99
2018-06-09T00:53:11.919Z,99.99
2018-06-09T00:54:12.472Z,99.99
2018-06-09T00:55:13.024Z,99.99
2018-06-09T00:56:13.575Z,99.99
2018-06-09T00:57:14.124Z,99.99
2018-06-09T00:58:14.671Z,99.99
2018-06-09T00:59:15.220Z,99.99
2018-06-09T01:00:15.772Z,99.99
2018-06-09T01:01:16.327Z,99.99
2018-06-09T01:02:16.878Z,99.99
2018-06-09T01:03:17.430Z,99.99
2018-06-09T01:04:17.977Z,99.99
2018-06-09T01:05:18.526Z,99.99
2018-06-09T01:06:19.078Z,99.99
2018-06-09T01:07:19.632Z,99.99
2018-06-09T01:08:20.187Z,99.99
2018-06-09T01:09:20.736Z,99.99
2018-06-09T01:10:21.284Z,99.99
2018-06-09T01:11:21.836Z,99.99
2018-06-09T01:12:22.388Z,99.99
2018-06-09T01:13:22.933Z,99.99
2018-06-09T01:14:23.491Z,99.99
2018-06-09T01:15:24.043Z,99.99
2018-06-09T01:16:24.592Z,99.99
2018-06-09T01:17:25.139Z,99.99
2018-06-09T01:18:25.701Z,99.99
2018-06-09T01:19:26.242Z,99.99
2018-06-09T01:20:26.798Z,99.99
2018-06-09T01:21:27.341Z,99.99
2018-06-09T01:22:27.893Z,99.99
2018-06-09T01:23:28.445Z,99.99
2018-06-09T01:24:28.995Z,99.99
2018-06-09T01:25:29.546Z,99.99
2018-06-09T01:26:30.101Z,99.99
2018-06-09T01:27:30.645Z,99.99
2018-06-09T01:28:31.196Z,99.99
2018-06-09T01:29:31.745Z,99.99
2018-06-09T01:30:32.294Z,99.99
2018-06-09T01:31:32.848Z,99.99
2018-06-09T01:32:33.402Z,99.99
2018-06-09T01:33:33.961Z,99.99
2018-06-09T01:34:34.508Z,99.99
2018-06-09T01:35:35.062Z,99.99
2018-06-09T01:36:35.612Z,99.99
2018-06-09T01:37:36.159Z,99.99
2018-06-09T01:38:36.714Z,99.99
2018-06-09T01:39:37.266Z,99.99
2018-06-09T01:40:37.824Z,99.99
2018-06-09T01:41:38.377Z,99.99
2018-06-09T01:42:38.930Z,99.99
2018-06-09T01:43:39.475Z,99.99
2018-06-09T01:44:40.032Z,99.99
2018-06-09T01:45:40.582Z,99.99
2018-06-09T01:46:41.137Z,99.99
2018-06-09T01:47:41.690Z,99.99
2018-06-09T01:48:42.242Z,99.99
2018-06-09T01:49:42.793Z,99.99
2018-06-09T01:50:43.340Z,99.99
2018-06-09T01:51:43.889Z,99.99
2018-06-09T01:52:44.436Z,99.99
2018-06-09T01:53:44.988Z,99.99
2018-06-09T01:54:45.545Z,99.99
2018-06-09T01:55:46.097Z,99.99
2018-06-09T01:56:46.646Z,99.99
2018-06-09T01:57:47.199Z,99.99
2018-06-09T01:58:47.756Z,99.99
2018-06-09T01:59:48.304Z,99.99
2018-06-09T02:00:48.863Z,99.99
2018-06-09T02:01:49.409Z,99.99
2018-06-09T02:02:49.957Z,99.99
2018-06-09T02:03:50.506Z,99.99
2018-06-09T02:04:51.056Z,99.99
2018-06-09T02:05:51.607Z,99.99
2018-06-09T02:06:52.158Z,99.99
2018-06-09T02:07:52.714Z,99.99
2018-06-09T02:08:53.261Z,99.99
2018-06-09T02:09:53.814Z,99.99
2018-06-09T02:10:54.365Z,99.99
2018-06-09T02:11:54.921Z,99.99
2018-06-09T02:12:55.466Z,99.99
2018-06-09T02:13:56.017Z,99.99
2018-06-09T02:14:56.567Z,99.99
2018-06-09T02:15:57.125Z,99.99
2018-06-09T02:16:57.679Z,99.99
2018-06-09T02:17:58.229Z,99.99
2018-06-09T02:18:58.784Z,99.99
2018-06-09T02:19:59.335Z,99.99
2018-06-09T02:20:59.886Z,99.99
2018-06-09T02:22:00.436Z,99.99
2018-06-09T02:23:00.991Z,99.99
2018-06-09T02:24:01.547Z,99.99
2018-06-09T02:25:02.100Z,99.99
2018-06-09T02:26:02.642Z,99.99
2018-06-09T02:27:03.191Z,99.99
2018-06-09T02:28:03.744Z,99.99
2018-06-09T02:29:04.298Z,99.99
2018-06-09T02:30:04.859Z,99.99
2018-06-09T02:31:05.410Z,99.99
2018-06-09T02:32:05.951Z,99.99
2018-06-09T02:33:06.498Z,99.99
2018-06-09T02:34:07.047Z,99.99
2018-06-09T02:35:07.595Z,99.99
2018-06-09T02:36:08.152Z,99.99
2018-06-09T02:37:08.700Z,99.99
2018-06-09T02:38:09.250Z,99.99
2018-06-09T02:39:09.797Z,99.99
2018-06-09T02:40:10.352Z,99.99
2018-06-09T02:41:10.905Z,99.99
2018-06-09T02:42:11.455Z,99.99
2018-06-09T02:43:12.002Z,99.99
2018-06-09T02:44:12.567Z,99.99
2018-06-09T02:45:13.109Z,99.99
2018-06-09T02:46:13.658Z,99.99
2018-06-09T02:47:14.208Z,99.99
2018-06-09T02:48:14.762Z,99.99
2018-06-09T02:49:15.309Z,99.99
2018-06-09T02:50:15.862Z,99.99
2018-06-09T02:51:16.411Z,99.99
2018-06-09T02:52:16.968Z,99.99
2018-06-09T02:53:17.511Z,99.99
2018-06-09T02:54:18.064Z,99.99
2018-06-09T02:55:18.617Z,99.99
2018-06-09T02:56:19.165Z,99.99
2018-06-09T02:57:19.713Z,99.99
2018-06-09T02:58:20.265Z,99.99
2018-06-09T02:59:20.815Z,99.99
2018-06-09T03:00:21.361Z,99.99
2018-06-09T03:01:21.912Z,99.99
2018-06-09T03:02:22.462Z,99.99
2018-06-09T03:03:23.008Z,99.99
2018-06-09T03:04:23.563Z,99.99
2018-06-09T03:05:24.108Z,99.99
2018-06-09T03:06:24.669Z,99.99
2018-06-09T03:07:25.216Z,99.99
2018-06-09T03:08:25.771Z,99.99
2018-06-09T03:09:26.324Z,99.99
2018-06-09T03:10:26.875Z,99.99
2018-06-09T03:11:27.426Z,99.99
2018-06-09T03:12:27.981Z,99.99
2018-06-09T03:13:28.546Z,99.99
2018-06-09T03:14:29.084Z,99.99
2018-06-09T03:15:29.634Z,99.99
2018-06-09T03:16:30.182Z,99.99
2018-06-09T03:17:30.735Z,99.99
2018-06-09T03:18:31.285Z,99.99
2018-06-09T03:19:31.844Z,99.99
2018-06-09T03:20:32.394Z,99.99
2018-06-09T03:21:32.947Z,99.99
2018-06-09T03:22:33.498Z,99.99
2018-06-09T03:23:34.049Z,99.99
2018-06-09T03:24:34.607Z,99.99
2018-06-09T03:25:35.161Z,99.99
2018-06-09T03:26:35.708Z,99.99
2018-06-09T03:27:36.263Z,99.99
2018-06-09T03:28:36.825Z,99.99
2018-06-09T03:29:37.375Z,99.99
2018-06-09T03:30:37.933Z,99.99
2018-06-09T03:31:38.486Z,99.99
2018-06-09T03:32:39.067Z,99.99
2018-06-09T03:33:39.588Z,99.99
2018-06-09T03:34:40.148Z,99.99
2018-06-09T03:35:40.698Z,99.99
2018-06-09T03:36:41.248Z,99.99
2018-06-09T03:37:41.803Z,99.99
2018-06-09T03:38:42.355Z,99.99
2018-06-09T03:39:42.908Z,99.99
2018-06-09T03:40:43.459Z,99.99
2018-06-09T03:41:44.014Z,99.99
2018-06-09T03:42:44.575Z,99.99
2018-06-09T03:43:45.128Z,99.99
2018-06-09T03:44:45.678Z,99.99
2018-06-09T03:45:46.230Z,99.99
2018-06-09T03:46:46.784Z,99.99
2018-06-09T03:47:47.339Z,99.99
2018-06-09T03:48:47.934Z,99.99
2018-06-09T03:49:48.447Z,99.99
2018-06-09T03:50:49.003Z,99.99
2018-06-09T03:51:49.557Z,99.99
2018-06-09T03:52:50.106Z,99.99
2018-06-09T03:53:50.664Z,99.99
2018-06-09T03:54:51.219Z,99.99
2018-06-09T03:55:51.776Z,99.99
2018-06-09T03:56:52.323Z,99.99
2018-06-09T03:57:52.882Z,99.99
2018-06-09T03:58:53.445Z,99.99
2018-06-09T03:59:53.990Z,99.99
2018-06-09T04:00:54.547Z,99.99
2018-06-09T04:01:55.102Z,99.99
2018-06-09T04:02:55.656Z,99.99
2018-06-09T04:03:56.210Z,99.99
2018-06-09T04:04:56.765Z,99.99
2018-06-09T04:05:57.317Z,99.99
2018-06-09T04:06:57.869Z,99.99
2018-06-09T04:07:58.425Z,99.99
2018-06-09T04:08:58.985Z,99.99
2018-06-09T04:09:59.536Z,99.99
2018-06-09T04:11:00.087Z,99.99
2018-06-09T04:12:00.642Z,99.99
2018-06-09T04:13:01.198Z,99.99
2018-06-09T04:14:01.756Z,99.99
2018-06-09T04:15:02.311Z,99.99
2018-06-09T04:16:02.977Z,99.99
2018-06-09T04:17:03.531Z,99.99
2018-06-09T04:18:04.088Z,99.99
2018-06-09T04:19:04.663Z,99.99
2018-06-09T04:20:05.199Z,99.99
2018-06-09T04:21:05.955Z,99.99
2018-06-09T04:22:06.511Z,99.99
2018-06-09T04:23:07.069Z,99.99
2018-06-09T04:24:07.622Z,99.99
2018-06-09T04:25:08.176Z,99.99
2018-06-09T04:26:08.733Z,99.99
2018-06-09T04:27:09.290Z,99.99
2018-06-09T04:28:09.843Z,99.99
2018-06-09T04:29:10.404Z,99.99
2018-06-09T04:30:10.956Z,99.99
2018-06-09T04:31:11.509Z,99.99
2018-06-09T04:32:12.067Z,99.99
2018-06-09T04:33:12.622Z,99.99
2018-06-09T04:34:13.178Z,99.99
2018-06-09T04:35:13.744Z,99.99
2018-06-09T04:36:14.293Z,99.99
2018-06-09T04:37:14.844Z,99.99
2018-06-09T04:38:15.395Z,99.99
2018-06-09T04:39:15.950Z,99.99
2018-06-09T04:40:16.509Z,99.99
2018-06-09T04:41:17.069Z,99.99
2018-06-09T04:42:17.614Z,99.99
2018-06-09T04:43:18.166Z,99.99
2018-06-09T04:44:18.720Z,99.99
2018-06-09T04:45:19.276Z,99.99
2018-06-09T04:46:19.834Z,99.99
2018-06-09T04:47:20.388Z,99.99
2018-06-09T04:48:20.941Z,99.99
2018-06-09T04:49:21.603Z,99.99
2018-06-09T04:50:22.159Z,99.99
2018-06-09T04:51:22.714Z,99.99
2018-06-09T04:52:23.274Z,99.99
2018-06-09T04:53:23.831Z,99.99
2018-06-09T04:54:24.391Z,99.99
2018-06-09T04:55:24.942Z,99.99
2018-06-09T04:56:25.507Z,99.99
2018-06-09T04:57:26.049Z,99.99
2018-06-09T04:58:26.654Z,99.99
2018-06-09T04:59:27.160Z,99.99
2018-06-09T05:00:27.722Z,99.99
2018-06-09T05:01:28.273Z,99.99
2018-06-09T05:02:28.826Z,99.99
2018-06-09T05:03:29.384Z,99.99
2018-06-09T05:04:29.940Z,99.99
2018-06-09T05:05:30.499Z,99.99
2018-06-09T05:06:31.055Z,99.99
2018-06-09T05:07:31.606Z,99.99
2018-06-09T05:08:32.157Z,99.99
2018-06-09T05:09:32.714Z,99.99
2018-06-09T05:10:33.274Z,99.99
2018-06-09T05:11:33.830Z,99.99
2018-06-09T05:12:34.387Z,99.99
2018-06-09T05:13:34.944Z,99.99
2018-06-09T05:14:35.503Z,99.99
2018-06-09T05:15:36.058Z,99.99
2018-06-09T05:16:36.619Z,99.99
2018-06-09T05:17:37.172Z,99.99
2018-06-09T05:18:37.728Z,99.99
2018-06-09T05:19:38.284Z,99.99
2018-06-09T05:20:38.841Z,99.99
2018-06-09T05:21:39.392Z,99.99
2018-06-09T05:22:39.949Z,99.99
2018-06-09T05:23:40.506Z,99.99
2018-06-09T05:24:41.058Z,99.99
2018-06-09T05:25:41.610Z,99.99
2018-06-09T05:26:42.164Z,99.99
2018-06-09T05:27:42.720Z,99.99
2018-06-09T05:28:43.277Z,99.99
2018-06-09T05:29:43.829Z,99.99
2018-06-09T05:30:44.388Z,99.99
2018-06-09T05:31:44.943Z,99.99
2018-06-09T05:32:45.501Z,99.99
2018-06-09T05:33:46.058Z,99.99
2018-06-09T05:34:46.620Z,99.99
2018-06-09T05:35:47.182Z,99.99
2018-06-09T05:36:47.739Z,99.99
2018-06-09T05:37:48.295Z,99.99
2018-06-09T05:38:48.860Z,99.99
2018-06-09T05:39:49.413Z,99.99
2018-06-09T05:40:49.973Z,99.99
2018-06-09T05:41:50.525Z,99.99
2018-06-09T05:42:51.083Z,99.99
2018-06-09T05:43:51.640Z,99.99
2018-06-09T05:44:52.198Z,99.99
2018-06-09T05:45:52.760Z,99.99
2018-06-09T05:46:53.314Z,99.99
2018-06-09T05:47:53.872Z,99.99
2018-06-09T05:48:54.430Z,99.99
2018-06-09T05:49:54.983Z,99.99
2018-06-09T05:50:55.540Z,99.99
2018-06-09T05:51:56.094Z,99.99
2018-06-09T05:52:56.645Z,99.99
2018-06-09T05:53:57.198Z,99.99
2018-06-09T05:54:57.757Z,99.99
2018-06-09T05:55:58.316Z,99.99
2018-06-09T05:56:58.874Z,99.99
2018-06-09T05:57:59.434Z,99.99
2018-06-09T05:58:59.994Z,99.99
2018-06-09T06:00:00.551Z,99.99
2018-06-09T06:01:01.108Z,99.99
2018-06-09T06:02:01.673Z,99.99
2018-06-09T06:03:02.228Z,99.99
2018-06-09T06:04:02.802Z,99.99
2018-06-09T06:05:03.330Z,99.99
2018-06-09T06:06:03.884Z,99.99
2018-06-09T06:07:04.439Z,99.99
2018-06-09T06:08:04.999Z,99.99
2018-06-09T06:09:05.556Z,99.99
2018-06-09T06:10:06.120Z,99.99
2018-06-09T06:11:06.674Z,99.99
2018-06-09T06:12:07.235Z,99.99
2018-06-09T06:13:07.793Z,99.99
2018-06-09T06:14:08.346Z,99.99
2018-06-09T06:15:08.905Z,99.99
2018-06-09T06:16:09.464Z,99.99
2018-06-09T06:17:10.023Z,99.99
2018-06-09T06:18:10.578Z,99.99
2018-06-09T06:19:11.133Z,99.99
2018-06-09T06:20:11.687Z,99.99
2018-06-09T06:21:12.246Z,99.99
2018-06-09T06:22:12.802Z,99.99
2018-06-09T06:23:13.362Z,99.99
2018-06-09T06:24:13.921Z,99.99
2018-06-09T06:25:14.480Z,99.99
2018-06-09T06:26:15.035Z,99.99
2018-06-09T06:27:15.598Z,99.99
2018-06-09T06:28:16.156Z,99.99
2018-06-09T06:29:16.711Z,99.99
2018-06-09T06:30:17.270Z,99.99
2018-06-09T06:31:17.825Z,99.99
2018-06-09T06:32:18.386Z,99.99
2018-06-09T06:33:18.951Z,99.99
2018-06-09T06:34:19.502Z,99.99
2018-06-09T06:35:20.063Z,99.99
2018-06-09T06:36:20.627Z,99.99
2018-06-09T06:37:21.188Z,99.99
2018-06-09T06:38:21.741Z,99.99
2018-06-09T06:39:22.300Z,99.99
2018-06-09T06:40:22.857Z,99.99
2018-06-09T06:41:23.417Z,99.99
2018-06-09T06:42:23.976Z,99.99
2018-06-09T06:43:24.534Z,99.99
2018-06-09T06:44:25.090Z,99.99
2018-06-09T06:45:25.642Z,99.99
2018-06-09T06:46:26.204Z,99.99
2018-06-09T06:47:26.753Z,99.99
2018-06-09T06:48:27.318Z,99.99
2018-06-09T06:49:27.870Z,99.99
2018-06-09T06:50:28.431Z,99.99
2018-06-09T06:51:28.983Z,99.99
2018-06-09T06:52:29.545Z,99.99
2018-06-09T06:53:30.105Z,99.99
2018-06-09T06:54:30.663Z,99.99
2018-06-09T06:55:31.224Z,99.99
2018-06-09T06:56:31.823Z,99.99
2018-06-09T06:57:32.336Z,99.99
2018-06-09T06:58:32.895Z,99.99
2018-06-09T06:59:33.456Z,99.99
2018-06-09T07:00:34.018Z,99.99
2018-06-09T07:01:34.580Z,99.99
2018-06-09T07:02:35.140Z,99.99
2018-06-09T07:03:35.697Z,99.99
2018-06-09T07:04:36.253Z,99.99
2018-06-09T07:05:36.820Z,99.99
2018-06-09T07:06:37.377Z,99.99
2018-06-09T07:07:37.936Z,99.99
2018-06-09T07:08:38.506Z,99.99
2018-06-09T07:09:39.046Z,99.99
2018-06-09T07:10:39.612Z,99.99
2018-06-09T07:11:40.167Z,99.99
2018-06-09T07:12:40.721Z,99.99
2018-06-09T07:13:41.276Z,99.99
2018-06-09T07:14:41.836Z,99.99
2018-06-09T07:15:42.394Z,99.99
2018-06-09T07:16:42.956Z,99.99
2018-06-09T07:17:43.515Z,99.99
2018-06-09T07:18:44.077Z,99.99
2018-06-09T07:19:44.637Z,99.99
2018-06-09T07:20:45.202Z,99.99
2018-06-09T07:21:45.761Z,99.99
2018-06-09T07:22:46.328Z,99.99
2018-06-09T07:23:46.886Z,99.99
2018-06-09T07:24:47.444Z,99.99
2018-06-09T07:25:48.006Z,99.99
2018-06-09T07:26:48.563Z,99.99
2018-06-09T07:27:49.122Z,99.99
2018-06-09T07:28:49.682Z,99.99
2018-06-09T07:29:50.239Z,99.99
2018-06-09T07:30:50.803Z,99.99
2018-06-09T07:31:51.369Z,99.99
2018-06-09T07:32:51.932Z,99.99
2018-06-09T07:33:52.485Z,99.99
2018-06-09T07:34:53.047Z,99.99
2018-06-09T07:35:53.600Z,99.99
2018-06-09T07:36:54.160Z,99.99
2018-06-09T07:37:54.729Z,99.99
2018-06-09T07:38:55.281Z,99.99
2018-06-09T07:39:55.843Z,99.99
2018-06-09T07:40:56.399Z,99.99
2018-06-09T07:41:56.959Z,99.99
2018-06-09T07:42:57.522Z,99.99
2018-06-09T07:43:58.083Z,99.99
2018-06-09T07:44:58.643Z,99.99
2018-06-09T07:45:59.210Z,99.99
2018-06-09T07:46:59.764Z,99.99
2018-06-09T07:48:00.378Z,99.99
2018-06-09T07:49:00.898Z,99.99
2018-06-09T07:50:01.442Z,99.99
2018-06-09T07:51:02.009Z,99.99
2018-06-09T07:52:02.567Z,99.99
2018-06-09T07:53:03.128Z,99.99
2018-06-09T07:54:03.703Z,99.99
2018-06-09T07:55:04.248Z,99.99
2018-06-09T07:56:04.807Z,99.99
2018-06-09T07:57:05.382Z,99.99
2018-06-09T07:58:05.934Z,99.99
2018-06-09T07:59:06.492Z,99.99
2018-06-09T08:00:07.058Z,99.99
2018-06-09T08:01:07.619Z,99.99
2018-06-09T08:02:08.180Z,99.99
2018-06-09T08:03:08.737Z,99.99
2018-06-09T08:04:09.300Z,99.99
2018-06-09T08:05:09.862Z,99.99
2018-06-09T08:06:10.426Z,99.99
2018-06-09T08:07:10.989Z,99.99
2018-06-09T08:08:11.549Z,99.99
2018-06-09T08:09:12.110Z,99.99
2018-06-09T08:10:12.677Z,99.99
2018-06-09T08:11:13.231Z,99.99
2018-06-09T08:12:13.791Z,99.99
2018-06-09T08:13:14.347Z,99.99
2018-06-09T08:14:14.906Z,99.99
2018-06-09T08:15:15.463Z,99.99
2018-06-09T08:16:16.031Z,99.99
2018-06-09T08:17:16.590Z,99.99
2018-06-09T08:18:17.149Z,99.99
2018-06-09T08:19:17.709Z,99.99
2018-06-09T08:20:18.274Z,99.99
2018-06-09T08:21:18.839Z,99.99
2018-06-09T08:22:19.402Z,99.99
2018-06-09T08:23:19.964Z,99.84
2018-06-09T08:24:20.527Z,99.31
2018-06-09T08:25:21.084Z,98.44
2018-06-09T08:26:21.643Z,97.96
2018-06-09T08:27:22.209Z,98.44
2018-06-09T08:28:22.770Z,97.96
2018-06-09T08:29:23.331Z,98.34
2018-06-09T08:30:23.899Z,98.54
2018-06-09T08:31:24.465Z,98.44
2018-06-09T08:32:25.027Z,98.44
2018-06-09T08:33:25.598Z,98.25
2018-06-09T08:34:26.155Z,98.00
2018-06-09T08:35:26.718Z,97.14
2018-06-09T08:36:27.338Z,96.46
2018-06-09T08:37:27.842Z,96.75
2018-06-09T08:38:28.405Z,97.42
2018-06-09T08:39:28.971Z,98.05
2018-06-09T08:40:29.538Z,96.41
2018-06-09T08:41:30.107Z,95.54
2018-06-09T08:42:30.671Z,95.25
2018-06-09T08:43:31.237Z,95.88
2018-06-09T08:44:31.804Z,96.46
2018-06-09T08:45:32.371Z,96.41
2018-06-09T08:46:32.939Z,95.93
2018-06-09T08:47:33.503Z,95.30
2018-06-09T08:48:34.063Z,94.48
2018-06-09T08:49:34.630Z,94.96
2018-06-09T08:50:35.197Z,94.91
2018-06-09T08:51:35.756Z,93.32
2018-06-09T08:52:36.321Z,92.54
2018-06-09T08:53:36.890Z,92.06
2018-06-09T08:54:37.493Z,91.96
2018-06-09T08:55:38.026Z,92.21
2018-06-09T08:56:38.595Z,92.21
2018-06-09T08:57:39.157Z,92.54
2018-06-09T08:58:39.728Z,92.10
2018-06-09T08:59:40.297Z,91.72
2018-06-09T09:00:40.910Z,91.08
2018-06-09T09:01:41.436Z,90.07
2018-06-09T09:02:42.006Z,89.88
2018-06-09T09:03:42.570Z,90.07
2018-06-09T09:04:43.139Z,90.12
2018-06-09T09:05:43.707Z,89.77
2018-06-09T09:06:44.276Z,88.23
2018-06-09T09:07:44.838Z,87.16
2018-06-09T09:08:45.418Z,87.35
2018-06-09T09:09:45.977Z,86.76
2018-06-09T09:10:46.546Z,84.43
2018-06-09T09:11:47.117Z,84.39
2018-06-09T09:12:47.684Z,85.27
2018-06-09T09:13:48.248Z,86.23
2018-06-09T09:14:48.823Z,85.65
2018-06-09T09:15:49.385Z,85.90
2018-06-09T09:16:49.951Z,85.71
2018-06-09T09:17:50.513Z,86.38
2018-06-09T09:18:51.081Z,86.82
2018-06-09T09:19:51.651Z,85.99
2018-06-09T09:20:52.218Z,84.37
2018-06-09T09:21:52.782Z,83.64
2018-06-09T09:22:53.351Z,83.29
2018-06-09T09:23:53.923Z,81.01
2018-06-09T09:24:54.481Z,80.38
2018-06-09T09:25:55.094Z,80.58
2018-06-09T09:26:55.619Z,81.01
2018-06-09T09:27:56.192Z,80.36
2018-06-09T09:28:56.762Z,79.39
2018-06-09T09:29:57.325Z,77.58
2018-06-09T09:30:57.899Z,78.52
2018-06-09T09:31:58.464Z,78.17
2018-06-09T09:32:59.032Z,78.66
2018-06-09T09:33:59.605Z,78.75
2018-06-09T09:35:00.195Z,77.56
2018-06-09T09:36:00.751Z,76.59
2018-06-09T09:37:01.315Z,76.04
2018-06-09T09:38:01.891Z,74.87
2018-06-09T09:39:02.470Z,74.29
2018-06-09T09:40:03.036Z,73.90
2018-06-09T09:41:03.607Z,74.39
2018-06-09T09:42:04.179Z,73.77
2018-06-09T09:43:04.742Z,73.86
2018-06-09T09:44:05.311Z,74.06
2018-06-09T09:45:05.880Z,74.00
2018-06-09T09:46:06.450Z,73.25
2018-06-09T09:47:07.023Z,73.00
2018-06-09T09:48:07.596Z,72.12
2018-06-09T09:49:08.165Z,72.61
2018-06-09T09:50:08.730Z,72.12
2018-06-09T09:51:09.302Z,71.47
2018-06-09T09:52:09.874Z,71.47
2018-06-09T09:53:10.440Z,71.02
2018-06-09T09:54:11.006Z,70.79
2018-06-09T09:55:11.580Z,71.37
2018-06-09T09:56:12.150Z,71.64
2018-06-09T09:57:12.735Z,71.70
2018-06-09T09:58:13.293Z,72.64
2018-06-09T09:59:13.864Z,73.67
2018-06-09T10:00:14.439Z,75.03
2018-06-09T10:01:15.006Z,73.77
2018-06-09T10:02:15.574Z,72.89
2018-06-09T10:03:16.143Z,72.92
2018-06-09T10:04:16.715Z,72.25
2018-06-09T10:05:17.287Z,71.95
2018-06-09T10:06:17.856Z,72.67
2018-06-09T10:07:18.431Z,72.57
2018-06-09T10:08:19.001Z,72.57
2018-06-09T10:09:19.581Z,71.70
2018-06-09T10:10:20.150Z,72.61
2018-06-09T10:11:20.718Z,71.34
2018-06-09T10:12:21.291Z,71.01
2018-06-09T10:13:21.864Z,71.76
2018-06-09T10:14:22.431Z,72.05
2018-06-09T10:15:23.003Z,71.72
2018-06-09T10:16:23.576Z,72.99
2018-06-09T10:17:24.144Z,72.92
2018-06-09T10:18:24.711Z,72.57
2018-06-09T10:19:25.278Z,71.73
2018-06-09T10:20:25.853Z,70.53
2018-06-09T10:21:26.426Z,69.07
2018-06-09T10:22:27.000Z,68.52
2018-06-09T10:23:27.569Z,68.62
2018-06-09T10:24:28.139Z,68.62
2018-06-09T10:25:28.719Z,68.77
2018-06-09T10:26:29.284Z,69.72
2018-06-09T10:27:29.856Z,68.55
2018-06-09T10:28:30.426Z,68.52
2018-06-09T10:29:30.997Z,69.29
2018-06-09T10:30:31.567Z,69.20
2018-06-09T10:31:32.188Z,68.49
2018-06-09T10:32:32.713Z,67.41
2018-06-09T10:33:33.278Z,67.44
2018-06-09T10:34:33.844Z,66.08
2018-06-09T10:35:34.411Z,66.17
2018-06-09T10:36:34.982Z,65.72
2018-06-09T10:37:35.554Z,65.07
2018-06-09T10:38:36.139Z,64.51
2018-06-09T10:39:36.699Z,63.93
2018-06-09T10:40:37.266Z,63.76
2018-06-09T10:41:37.833Z,64.68
2018-06-09T10:42:38.405Z,64.45
2018-06-09T10:43:38.971Z,65.62
2018-06-09T10:44:39.541Z,65.49
2018-06-09T10:45:40.118Z,66.34
2018-06-09T10:46:40.691Z,67.25
2018-06-09T10:47:41.263Z,66.08
2018-06-09T10:48:41.838Z,64.94
2018-06-09T10:49:42.414Z,64.68
2018-06-09T10:50:42.987Z,63.73
2018-06-09T10:51:43.558Z,63.64
2018-06-09T10:52:44.129Z,64.15
2018-06-09T10:53:44.702Z,64.15
2018-06-09T10:54:45.271Z,63.64
2018-06-09T10:55:45.845Z,64.87
2018-06-09T10:56:46.411Z,64.68
2018-06-09T10:57:46.983Z,63.64
2018-06-09T10:58:47.552Z,63.93
2018-06-09T10:59:48.124Z,62.95
2018-06-09T11:00:48.697Z,63.05
2018-06-09T11:01:49.265Z,62.46
2018-06-09T11:02:49.838Z,62.16
2018-06-09T11:03:50.412Z,62.85
2018-06-09T11:04:50.983Z,63.90
2018-06-09T11:05:51.548Z,63.70
2018-06-09T11:06:52.118Z,64.26
2018-06-09T11:07:52.683Z,65.07
2018-06-09T11:08:53.259Z,64.78
2018-06-09T11:09:53.832Z,63.90
2018-06-09T11:10:54.405Z,64.09
2018-06-09T11:11:54.972Z,64.03
2018-06-09T11:12:55.551Z,63.76
2018-06-09T11:13:56.125Z,63.50
2018-06-09T11:14:56.694Z,63.21
2018-06-09T11:15:57.269Z,62.85
2018-06-09T11:16:57.829Z,62.65
2018-06-09T11:17:58.399Z,62.49
2018-06-09T11:18:58.977Z,63.57
2018-06-09T11:19:59.552Z,63.54
2018-06-09T11:21:00.120Z,63.41
2018-06-09T11:22:00.691Z,63.12
2018-06-09T11:23:01.258Z,63.41
2018-06-09T11:24:01.828Z,62.85
2018-06-09T11:25:02.399Z,62.79
2018-06-09T11:26:02.967Z,62.10
2018-06-09T11:27:03.540Z,62.29
2018-06-09T11:28:04.117Z,61.61
2018-06-09T11:29:04.686Z,62.32
2018-06-09T11:30:05.262Z,61.32
2018-06-09T11:31:05.836Z,62.29
2018-06-09T11:32:06.410Z,62.32
2018-06-09T11:33:06.977Z,62.03
2018-06-09T11:34:07.553Z,62.06
2018-06-09T11:35:08.124Z,62.19
2018-06-09T11:36:08.698Z,62.19
2018-06-09T11:37:09.272Z,60.63
2018-06-09T11:38:09.854Z,59.71
2018-06-09T11:39:54.597Z,60.82
2018-06-09T11:40:55.182Z,59.87
2018-06-09T11:41:55.788Z,58.79
2018-06-09T11:42:56.395Z,58.33
2018-06-09T11:43:56.980Z,58.23
2018-06-09T11:44:57.545Z,57.84
2018-06-09T11:45:58.121Z,58.72
2018-06-09T11:46:58.693Z,58.26
2018-06-09T11:47:59.268Z,58.75
2018-06-09T11:48:59.841Z,58.06
2018-06-09T11:50:00.413Z,57.87
2018-06-09T11:51:00.988Z,57.38
2018-06-09T11:52:01.576Z,58.06
2018-06-09T11:53:02.142Z,57.97
2018-06-09T11:54:02.740Z,58.19
2018-06-09T11:55:03.301Z,59.47
2018-06-09T11:56:03.877Z,59.27
2018-06-09T11:57:04.454Z,58.61
2018-06-09T11:58:05.031Z,56.55
2018-06-09T11:59:05.604Z,57.14
2018-06-09T12:00:06.180Z,57.77
2018-06-09T12:01:06.752Z,58.95
2018-06-09T12:02:07.328Z,57.64
2018-06-09T12:03:07.897Z,58.01
2018-06-09T12:04:08.471Z,58.57
2018-06-09T12:05:09.041Z,58.76
2018-06-09T12:06:09.623Z,59.78
2018-06-09T12:07:10.197Z,59.12
2018-06-09T12:08:10.769Z,59.49
2018-06-09T12:09:11.343Z,59.39
2018-06-09T12:10:11.920Z,59.49
2018-06-09T12:11:12.493Z,61.05
2018-06-09T12:12:13.066Z,61.08
2018-06-09T12:13:13.631Z,60.92
2018-06-09T12:14:14.209Z,59.19
2018-06-09T12:15:14.782Z,57.91
2018-06-09T12:16:15.362Z,57.42
2018-06-09T12:17:15.938Z,57.64
2018-06-09T12:18:16.543Z,56.88
2018-06-09T12:19:17.090Z,56.62
2018-06-09T12:20:17.660Z,56.62
2018-06-09T12:21:18.227Z,56.35
2018-06-09T12:22:18.803Z,56.72
2018-06-09T12:23:19.373Z,56.16
2018-06-09T12:24:19.948Z,56.35
2018-06-09T12:25:20.553Z,55.47
2018-06-09T12:26:21.156Z,55.18
2018-06-09T12:27:21.696Z,54.41
2018-06-09T12:28:22.290Z,54.32
2018-06-09T12:29:22.850Z,54.22
2018-06-09T12:30:23.420Z,54.41
2018-06-09T12:31:23.989Z,53.95
2018-06-09T12:32:24.607Z,54.08
2018-06-09T12:33:25.134Z,54.93
2018-06-09T12:34:25.706Z,54.44
2018-06-09T12:35:26.312Z,54.66
2018-06-09T12:36:26.861Z,55.35
2018-06-09T12:37:27.434Z,55.64
2018-06-09T12:38:27.996Z,55.22
2018-06-09T12:39:28.664Z,55.81
2018-06-09T12:40:29.141Z,56.69
2018-06-09T12:41:29.710Z,56.88
2018-06-09T12:42:30.272Z,56.79
2018-06-09T12:43:30.849Z,56.30
2018-06-09T12:44:31.424Z,56.47
2018-06-09T12:45:31.994Z,57.32
2018-06-09T12:46:32.571Z,58.27
2018-06-09T12:47:33.178Z,59.25
2018-06-09T12:48:33.819Z,59.45
2018-06-09T12:49:34.324Z,59.16
2018-06-09T12:50:34.901Z,59.48
2018-06-09T12:51:35.494Z,58.50
2018-06-09T12:52:36.077Z,58.40
2018-06-09T12:53:36.653Z,58.17
2018-06-09T12:54:37.227Z,58.61
2018-06-09T12:55:37.851Z,59.00
2018-06-09T12:56:38.411Z,59.69
2018-06-09T12:57:38.977Z,60.86
2018-06-09T12:58:39.548Z,59.94
2018-06-09T12:59:40.121Z,60.26
2018-06-09T13:00:40.699Z,61.37